Time;durP1;ratioP1;P1;durP2;ratioP2;P2;SDS_P1;SDS_P2;PMS_P1;PMS_P2;Temp;Humidity;BMP_temperature;BMP_pressure;BME280_temperature;BME280_humidity;BME280_pressure;Samples;Min_cycle;Max_cycle;Signal;HPM_P1;HPM_P2
2021/07/04 00:01:03;;;;;;;8.57;7.63;;;18.60;99.90;;;;;;5054621;28;20566;-58
2021/07/04 00:03:29;;;;;;;8.67;7.50;;;18.80;99.90;;;;;;5053916;28;20177;-50
2021/07/04 00:05:54;;;;;;;8.03;7.23;;;18.80;99.90;;;;;;5053725;28;20188;-59
2021/07/04 00:08:24;;;;;;;8.37;7.47;;;18.80;99.90;;;;;;5055135;28;20211;-51
2021/07/04 00:10:58;;;;;;;8.13;7.33;;;18.80;99.90;;;;;;5054133;28;20680;-60
2021/07/04 00:13:23;;;;;;;9.00;7.50;;;18.80;99.90;;;;;;5054140;28;20248;-60
2021/07/04 00:15:49;;;;;;;9.23;7.97;;;18.80;99.90;;;;;;5054596;28;20197;-60
2021/07/04 00:18:19;;;;;;;8.93;7.67;;;18.80;99.90;;;;;;5054708;28;20248;-56
2021/07/04 00:20:47;;;;;;;9.53;8.50;;;18.70;99.90;;;;;;5054281;28;20199;-59
2021/07/04 00:23:13;;;;;;;8.17;7.30;;;18.70;99.90;;;;;;5053748;28;20182;-58
2021/07/04 00:25:40;;;;;;;9.13;8.23;;;18.70;99.90;;;;;;5053999;28;20207;-57
2021/07/04 00:28:06;;;;;;;9.17;7.30;;;18.70;99.90;;;;;;5044743;28;20221;-51
2021/07/04 00:30:32;;;;;;;8.23;7.43;;;18.70;99.90;;;;;;5033220;28;20597;-60
2021/07/04 00:32:58;;;;;;;8.53;7.67;;;18.60;99.90;;;;;;5043102;28;20179;-60
2021/07/04 00:35:24;;;;;;;8.90;7.60;;;18.60;99.90;;;;;;5054482;28;20177;-51
2021/07/04 00:37:51;;;;;;;8.30;7.50;;;18.60;99.90;;;;;;5053082;28;20229;-56
2021/07/04 00:40:18;;;;;;;9.03;7.60;;;18.60;99.90;;;;;;5054150;28;20233;-52
2021/07/04 00:42:44;;;;;;;8.53;7.70;;;18.50;99.90;;;;;;5053007;28;20173;-56
2021/07/04 00:45:24;;;;;;;7.67;6.97;;;18.50;99.90;;;;;;5054003;28;20717;-51
2021/07/04 00:47:50;;;;;;;8.40;7.13;;;18.60;99.90;;;;;;5054549;28;20674;-60
2021/07/04 00:50:17;;;;;;;7.80;7.10;;;18.50;99.90;;;;;;5054251;28;20241;-58
2021/07/04 00:52:44;;;;;;;8.97;7.20;;;18.50;99.90;;;;;;5052715;28;20187;-52
2021/07/04 00:55:13;;;;;;;8.87;7.07;;;18.40;99.90;;;;;;5054096;28;20256;-57
2021/07/04 00:57:39;;;;;;;8.20;7.40;;;18.40;99.90;;;;;;5053778;28;20191;-53
2021/07/04 01:00:08;;;;;;;9.47;7.50;;;18.40;99.90;;;;;;5052912;28;20176;-59
2021/07/04 01:02:34;;;;;;;8.77;7.27;;;18.30;99.90;;;;;;5053830;28;20262;-57
2021/07/04 01:05:00;;;;;;;8.10;6.87;;;18.30;99.90;;;;;;5052540;28;20220;-55
2021/07/04 01:07:26;;;;;;;8.53;7.63;;;18.30;99.90;;;;;;5053783;28;20256;-50
2021/07/04 01:09:53;;;;;;;7.37;6.60;;;18.30;99.90;;;;;;5052603;28;20202;-53
2021/07/04 01:12:18;;;;;;;7.67;6.97;;;18.40;99.90;;;;;;5053630;28;20271;-50
2021/07/04 01:14:44;;;;;;;9.30;6.83;;;18.30;99.90;;;;;;5053839;28;20223;-55
2021/07/04 01:17:10;;;;;;;9.37;7.10;;;18.00;99.90;;;;;;5052484;28;20199;-60
2021/07/04 01:19:35;;;;;;;9.00;7.87;;;17.60;99.90;;;;;;5053604;28;20509;-60
2021/07/04 01:22:03;;;;;;;8.73;7.87;;;17.10;99.90;;;;;;5052336;28;20168;-54
2021/07/04 01:24:28;;;;;;;9.73;6.73;;;17.10;99.90;;;;;;5053553;28;20592;-52
2021/07/04 01:26:54;;;;;;;8.73;7.40;;;17.40;99.90;;;;;;5054065;28;20655;-54
2021/07/04 01:29:20;;;;;;;9.23;7.40;;;17.40;99.90;;;;;;5054071;28;20500;-52
2021/07/04 01:31:46;;;;;;;8.40;6.80;;;17.50;99.90;;;;;;5052961;28;20175;-53
2021/07/04 01:34:12;;;;;;;7.70;7.00;;;17.60;99.90;;;;;;5053011;28;20183;-50
2021/07/04 01:36:38;;;;;;;8.03;7.23;;;17.60;99.90;;;;;;5053475;28;20557;-50
2021/07/04 01:39:06;;;;;;;7.73;7.03;;;17.70;99.90;;;;;;5052560;28;20611;-60
2021/07/04 01:41:33;;;;;;;8.70;7.80;;;17.70;99.90;;;;;;5053512;28;20172;-52
2021/07/04 01:44:00;;;;;;;7.93;7.13;;;17.80;99.90;;;;;;5052662;28;20543;-56
2021/07/04 01:46:26;;;;;;;8.00;7.20;;;17.80;99.90;;;;;;5052895;28;20164;-60
2021/07/04 01:48:51;;;;;;;7.63;6.93;;;17.90;99.90;;;;;;5052934;28;20674;-58
2021/07/04 01:51:17;;;;;;;8.50;7.20;;;17.90;99.90;;;;;;5052170;28;20199;-57
2021/07/04 01:53:43;;;;;;;7.57;6.87;;;18.00;99.90;;;;;;5056991;28;20533;-54
2021/07/04 01:56:08;;;;;;;7.60;6.90;;;18.00;99.90;;;;;;5056461;28;20216;-56
2021/07/04 01:58:36;;;;;;;8.20;7.40;;;18.00;99.90;;;;;;5057253;28;20591;-56
2021/07/04 02:01:04;;;;;;;8.30;7.33;;;18.10;99.90;;;;;;5056817;28;20177;-57
2021/07/04 02:03:30;;;;;;;8.07;7.27;;;18.10;99.90;;;;;;5054842;28;20175;-56
2021/07/04 02:05:55;;;;;;;7.90;7.10;;;18.10;99.90;;;;;;5054779;28;20179;-59
2021/07/04 02:08:21;;;;;;;8.27;7.17;;;18.20;99.90;;;;;;5054756;28;20272;-59
2021/07/04 02:10:46;;;;;;;8.03;7.33;;;18.20;99.90;;;;;;5054636;28;20199;-60
2021/07/04 02:13:12;;;;;;;8.60;7.80;;;18.20;99.90;;;;;;5053774;28;20188;-58
2021/07/04 02:15:40;;;;;;;8.37;7.27;;;18.30;99.90;;;;;;5054667;28;20180;-55
2021/07/04 02:18:10;;;;;;;8.27;7.47;;;18.30;99.90;;;;;;5054330;28;20195;-57
2021/07/04 02:20:48;;;;;;;7.83;6.93;;;18.30;99.90;;;;;;5056407;28;20186;-57
2021/07/04 02:23:17;;;;;;;8.17;7.20;;;18.20;99.90;;;;;;5057309;28;20184;-57
2021/07/04 02:25:45;;;;;;;9.10;7.30;;;18.20;99.90;;;;;;5056607;28;20194;-57
2021/07/04 02:28:13;;;;;;;9.17;7.70;;;18.10;99.90;;;;;;5055438;28;20202;-59
2021/07/04 02:30:39;;;;;;;8.83;7.93;;;17.70;99.90;;;;;;5056775;28;20276;-60
2021/07/04 02:33:07;;;;;;;9.40;8.50;;;17.50;99.90;;;;;;5055557;28;20641;-57
2021/07/04 02:35:35;;;;;;;8.60;7.80;;;17.30;99.90;;;;;;5056476;28;20173;-57
2021/07/04 02:38:01;;;;;;;8.33;7.53;;;17.30;99.90;;;;;;5056571;28;20654;-55
2021/07/04 02:40:27;;;;;;;8.60;7.50;;;17.40;99.90;;;;;;5056968;28;20233;-58
2021/07/04 02:42:53;;;;;;;8.47;7.57;;;17.50;99.90;;;;;;5055242;28;20195;-52
2021/07/04 02:45:19;;;;;;;8.60;7.67;;;17.60;99.90;;;;;;5056217;28;20233;-59
2021/07/04 02:47:45;;;;;;;11.67;7.63;;;17.70;99.90;;;;;;5056330;28;20245;-60
2021/07/04 02:50:12;;;;;;;8.50;7.70;;;17.70;99.90;;;;;;5055084;28;20203;-51
2021/07/04 02:52:38;;;;;;;8.30;7.40;;;17.70;99.90;;;;;;5055974;28;20251;-57
2021/07/04 02:55:08;;;;;;;9.87;7.80;;;17.70;99.90;;;;;;5055967;28;20658;-50
2021/07/04 02:57:34;;;;;;;8.20;7.40;;;17.70;99.90;;;;;;5054802;28;20249;-51
2021/07/04 03:00:00;;;;;;;8.67;7.77;;;17.70;99.90;;;;;;5056063;28;20175;-58
2021/07/04 03:02:26;;;;;;;9.07;7.20;;;17.50;99.90;;;;;;5054884;28;20609;-56
2021/07/04 03:04:52;;;;;;;9.03;8.13;;;17.50;99.90;;;;;;5055786;28;20179;-60
2021/07/04 03:07:18;;;;;;;8.27;7.47;;;17.50;99.90;;;;;;5055691;28;20286;-52
2021/07/04 03:09:43;;;;;;;8.73;7.87;;;17.50;99.90;;;;;;5054662;28;20633;-52
2021/07/04 03:12:10;;;;;;;7.80;7.10;;;17.50;99.90;;;;;;5055607;28;20168;-51
2021/07/04 03:14:36;;;;;;;8.10;7.30;;;17.70;99.90;;;;;;5055711;28;20230;-52
2021/07/04 03:17:02;;;;;;;8.63;7.83;;;17.70;99.90;;;;;;5055381;28;20272;-59
2021/07/04 03:19:27;;;;;;;8.53;7.13;;;17.80;99.90;;;;;;5055542;28;20168;-54
2021/07/04 03:21:53;;;;;;;8.57;6.73;;;17.70;99.90;;;;;;5053187;28;20187;-60
2021/07/04 03:24:18;;;;;;;7.93;7.13;;;17.70;99.90;;;;;;5055486;28;20171;-52
2021/07/04 03:26:44;;;;;;;7.80;7.10;;;17.70;99.90;;;;;;5055667;28;20175;-51
2021/07/04 03:29:09;;;;;;;8.27;7.17;;;17.60;99.90;;;;;;5055842;28;20206;-56
2021/07/04 03:31:35;;;;;;;7.87;7.17;;;17.50;99.90;;;;;;5055138;28;20268;-58
2021/07/04 03:34:00;;;;;;;8.23;7.43;;;17.60;99.90;;;;;;5054417;28;20187;-55
2021/07/04 03:36:26;;;;;;;10.00;7.80;;;17.60;99.90;;;;;;5055130;28;20631;-52
2021/07/04 03:38:51;;;;;;;7.70;7.00;;;17.60;99.90;;;;;;5054680;28;20171;-60
2021/07/04 03:41:17;;;;;;;9.03;7.70;;;17.70;99.90;;;;;;5055045;28;20180;-55
2021/07/04 03:43:43;;;;;;;9.13;7.60;;;17.70;99.90;;;;;;5055187;28;20179;-50
2021/07/04 03:46:08;;;;;;;8.47;7.57;;;17.70;99.90;;;;;;5054780;28;20574;-58
2021/07/04 03:48:34;;;;;;;8.43;7.63;;;17.70;99.90;;;;;;5054658;28;20203;-51
2021/07/04 03:51:01;;;;;;;8.43;7.53;;;17.70;99.90;;;;;;5054883;28;20249;-58
2021/07/04 03:53:27;;;;;;;7.77;6.97;;;17.70;99.90;;;;;;5054071;28;20525;-59
2021/07/04 03:55:52;;;;;;;8.63;7.73;;;17.70;99.90;;;;;;5054973;28;20627;-60
2021/07/04 03:58:18;;;;;;;8.63;7.70;;;17.70;99.90;;;;;;5055029;28;20248;-54
2021/07/04 04:00:43;;;;;;;8.70;7.80;;;17.70;99.90;;;;;;5055175;28;20179;-54
2021/07/04 04:03:09;;;;;;;9.87;7.70;;;17.70;99.90;;;;;;5053752;28;20195;-50
2021/07/04 04:05:34;;;;;;;9.67;7.83;;;17.40;99.90;;;;;;5054829;28;20183;-53
2021/07/04 04:08:00;;;;;;;8.60;7.70;;;17.80;99.90;;;;;;5054156;28;20222;-56
2021/07/04 04:10:26;;;;;;;8.13;7.40;;;17.70;99.90;;;;;;5054009;28;20631;-50
2021/07/04 04:12:51;;;;;;;8.77;7.57;;;17.70;99.90;;;;;;5053959;28;20179;-57
2021/07/04 04:15:17;;;;;;;8.80;7.90;;;17.60;99.90;;;;;;5053344;28;20171;-58
2021/07/04 04:17:42;;;;;;;10.17;7.67;;;17.60;99.90;;;;;;5054783;28;20194;-55
2021/07/04 04:20:09;;;;;;;9.40;8.37;;;17.60;99.90;;;;;;5053427;28;20256;-49
2021/07/04 04:22:36;;;;;;;8.43;7.50;;;17.70;99.90;;;;;;5054198;28;20174;-58
2021/07/04 04:25:03;;;;;;;8.77;7.80;;;17.70;99.90;;;;;;5053746;28;20279;-56
2021/07/04 04:27:29;;;;;;;11.50;8.20;;;17.90;99.90;;;;;;5054230;28;20231;-53
2021/07/04 04:29:55;;;;;;;10.73;8.70;;;17.90;99.90;;;;;;5054438;28;20234;-58
2021/07/04 04:32:20;;;;;;;8.93;8.03;;;18.00;99.90;;;;;;5053095;28;20214;-52
2021/07/04 04:34:46;;;;;;;11.93;9.53;;;18.00;99.90;;;;;;5054823;28;20171;-50
2021/07/04 04:37:11;;;;;;;10.67;9.57;;;17.90;99.90;;;;;;5052994;28;20219;-53
2021/07/04 04:39:37;;;;;;;9.43;7.97;;;17.80;99.90;;;;;;5053989;28;20180;-55
2021/07/04 04:42:03;;;;;;;8.57;7.77;;;17.90;99.90;;;;;;5054182;28;20677;-56
2021/07/04 04:44:29;;;;;;;8.83;7.93;;;18.10;99.90;;;;;;5053697;28;20237;-55
2021/07/04 04:46:54;;;;;;;10.37;9.37;;;18.20;99.90;;;;;;5054027;28;20239;-59
2021/07/04 04:49:20;;;;;;;10.23;9.27;;;18.30;99.90;;;;;;5054007;28;20178;-54
2021/07/04 04:51:45;;;;;;;11.17;10.03;;;18.30;99.90;;;;;;5053411;28;20207;-52
2021/07/04 04:54:11;;;;;;;10.27;9.27;;;18.30;99.90;;;;;;5053266;28;20614;-53
2021/07/04 04:56:36;;;;;;;10.73;8.70;;;18.20;99.90;;;;;;5053988;28;20695;-54
2021/07/04 04:59:03;;;;;;;9.20;8.30;;;18.20;99.90;;;;;;5052924;28;20531;-60
2021/07/04 05:01:29;;;;;;;8.80;7.90;;;18.30;99.90;;;;;;5041351;28;20191;-57
2021/07/04 05:03:58;;;;;;;10.40;8.33;;;18.40;99.90;;;;;;5032941;28;20270;-53
2021/07/04 05:06:23;;;;;;;9.67;8.77;;;18.50;99.90;;;;;;5045653;28;20634;-52
2021/07/04 05:08:49;;;;;;;17.53;9.67;;;18.60;99.90;;;;;;5052642;28;20199;-54
2021/07/04 05:11:15;;;;;;;10.13;9.13;;;18.60;99.90;;;;;;5053574;28;20676;-50
2021/07/04 05:13:41;;;;;;;11.63;10.53;;;18.60;99.90;;;;;;5054069;28;20171;-57
2021/07/04 05:16:07;;;;;;;11.23;9.93;;;18.60;99.90;;;;;;5052849;28;20197;-60
2021/07/04 05:18:33;;;;;;;11.50;9.97;;;18.50;99.90;;;;;;5054168;28;20199;-54
2021/07/04 05:20:59;;;;;;;10.70;9.60;;;18.50;99.90;;;;;;5052086;28;20265;-57
2021/07/04 05:23:25;;;;;;;9.90;8.90;;;18.50;99.90;;;;;;5053613;28;20175;-50
2021/07/04 05:25:53;;;;;;;10.37;8.50;;;18.40;99.90;;;;;;5053738;28;20172;-56
2021/07/04 05:28:19;;;;;;;11.30;10.20;;;18.60;99.90;;;;;;5057312;28;20204;-60
2021/07/04 05:30:44;;;;;;;9.83;8.80;;;18.70;99.90;;;;;;5058068;28;20199;-53
2021/07/04 05:33:10;;;;;;;11.37;8.73;;;18.80;99.90;;;;;;5056690;28;20172;-52
2021/07/04 05:35:35;;;;;;;9.73;8.73;;;18.90;99.90;;;;;;5057657;28;20175;-59
2021/07/04 05:38:01;;;;;;;10.57;9.10;;;19.00;99.90;;;;;;5057351;28;20199;-60
2021/07/04 05:40:27;;;;;;;9.33;8.33;;;18.90;99.90;;;;;;5057558;28;20693;-53
2021/07/04 05:42:53;;;;;;;8.70;7.90;;;18.90;99.90;;;;;;5056255;28;20194;-51
2021/07/04 05:45:25;;;;;;;9.10;8.20;;;18.80;99.90;;;;;;5058141;28;20182;-55
2021/07/04 05:47:51;;;;;;;9.73;8.73;;;18.80;99.90;;;;;;5057201;28;20201;-56
2021/07/04 05:50:18;;;;;;;10.47;8.77;;;18.80;99.90;;;;;;5056603;28;20198;-58
2021/07/04 05:52:45;;;;;;;9.60;8.63;;;18.90;99.90;;;;;;5057304;28;20174;-58
2021/07/04 05:55:11;;;;;;;10.53;9.47;;;19.00;99.90;;;;;;5057375;28;20624;-60
2021/07/04 05:57:37;;;;;;;9.67;8.70;;;19.00;99.90;;;;;;5057113;28;20269;-51
2021/07/04 06:00:05;;;;;;;9.90;8.67;;;19.10;99.90;;;;;;5057655;28;20259;-55
2021/07/04 06:02:30;;;;;;;9.47;8.50;;;19.10;99.90;;;;;;5057047;28;20186;-50
2021/07/04 06:04:56;;;;;;;10.20;9.30;;;19.10;99.90;;;;;;5057351;28;20180;-60
2021/07/04 06:07:21;;;;;;;9.27;8.37;;;19.10;99.90;;;;;;5056978;28;20582;-53
2021/07/04 06:09:47;;;;;;;10.30;8.03;;;18.90;99.90;;;;;;5056630;28;20704;-60
2021/07/04 06:12:12;;;;;;;10.20;9.20;;;19.00;99.90;;;;;;5056772;28;20175;-60
2021/07/04 06:14:38;;;;;;;9.30;8.47;;;19.10;99.90;;;;;;5056459;28;20184;-53
2021/07/04 06:17:04;;;;;;;10.70;8.40;;;19.10;99.90;;;;;;5056512;28;20191;-57
2021/07/04 06:19:29;;;;;;;10.90;8.40;;;19.30;99.90;;;;;;5056974;28;20255;-51
2021/07/04 06:21:55;;;;;;;10.33;9.00;;;19.40;99.90;;;;;;5055835;28;20175;-50
2021/07/04 06:24:21;;;;;;;8.93;8.13;;;19.40;99.90;;;;;;5056864;28;20165;-56
2021/07/04 06:26:46;;;;;;;9.10;8.20;;;19.50;99.90;;;;;;5055809;28;20195;-59
2021/07/04 06:29:12;;;;;;;10.43;9.33;;;19.50;99.90;;;;;;5056629;28;20175;-57
2021/07/04 06:31:37;;;;;;;8.63;7.83;;;19.60;99.90;;;;;;5056195;28;20662;-54
2021/07/04 06:34:03;;;;;;;8.90;8.00;;;19.80;99.90;;;;;;5055657;28;20249;-53
2021/07/04 06:36:29;;;;;;;8.57;7.77;;;19.90;99.90;;;;;;5056227;28;20183;-60
2021/07/04 06:38:55;;;;;;;9.03;8.13;;;20.10;99.90;;;;;;5055889;28;20229;-56
2021/07/04 06:41:21;;;;;;;8.67;7.77;;;20.30;99.90;;;;;;5055179;28;20195;-59
2021/07/04 06:43:47;;;;;;;9.07;8.23;;;20.30;99.90;;;;;;5051903;28;20183;-57
2021/07/04 06:46:13;;;;;;;8.60;7.80;;;20.50;99.90;;;;;;5056155;28;20520;-50
2021/07/04 06:48:39;;;;;;;11.00;9.90;;;20.70;99.90;;;;;;5054999;28;20685;-53
2021/07/04 06:51:05;;;;;;;9.00;8.10;;;20.70;99.90;;;;;;5055506;28;20209;-60
2021/07/04 06:53:31;;;;;;;9.47;7.97;;;20.80;99.90;;;;;;5055297;28;20195;-59
2021/07/04 06:55:57;;;;;;;9.60;8.13;;;20.90;99.90;;;;;;5054523;28;20180;-59
2021/07/04 06:58:22;;;;;;;8.83;8.03;;;21.00;99.90;;;;;;5056202;28;20240;-60
2021/07/04 07:00:48;;;;;;;8.53;7.73;;;21.00;99.90;;;;;;5054939;28;20270;-57
2021/07/04 07:03:14;;;;;;;8.50;7.70;;;21.10;99.90;;;;;;5056716;28;20210;-50
2021/07/04 07:05:39;;;;;;;9.93;8.93;;;21.00;99.90;;;;;;5055868;28;20490;-59
2021/07/04 07:08:05;;;;;;;8.23;7.43;;;20.90;99.90;;;;;;5056034;28;20214;-59
2021/07/04 07:10:31;;;;;;;8.60;7.80;;;21.10;99.90;;;;;;5050382;28;20212;-50
2021/07/04 07:12:58;;;;;;;8.60;7.77;;;21.20;99.90;;;;;;5047775;28;20179;-55
2021/07/04 07:15:24;;;;;;;9.57;8.63;;;21.10;99.90;;;;;;5052681;28;20191;-59
2021/07/04 07:17:49;;;;;;;7.95;7.15;;;21.40;99.90;;;;;;5049112;28;20196;-54
2021/07/04 07:20:15;;;;;;;9.02;8.23;;;21.40;99.90;;;;;;5038224;28;20536;-56
2021/07/04 07:22:41;;;;;;;9.50;7.80;;;21.70;99.90;;;;;;5034600;28;20275;-55
2021/07/04 07:25:07;;;;;;;7.32;6.63;;;21.80;99.90;;;;;;5040719;28;20180;-56
2021/07/04 07:27:34;;;;;;;7.38;6.78;;;21.90;99.90;;;;;;5051646;28;20725;-53
2021/07/04 07:30:00;;;;;;;8.68;7.88;;;22.10;99.90;;;;;;5042576;28;20206;-59
2021/07/04 07:32:27;;;;;;;8.95;7.50;;;22.20;99.90;;;;;;5055732;28;20546;-52
2021/07/04 07:34:53;;;;;;;9.13;8.23;;;21.80;99.90;;;;;;5053866;28;20243;-60
2021/07/04 07:37:19;;;;;;;7.55;6.85;;;22.20;99.90;;;;;;5050631;28;20200;-56
2021/07/04 07:39:45;;;;;;;8.20;7.50;;;22.30;99.90;;;;;;5037407;28;20186;-56
2021/07/04 07:42:10;;;;;;;7.28;6.65;;;22.30;99.90;;;;;;5052538;28;20170;-55
2021/07/04 07:44:36;;;;;;;7.20;6.50;;;22.10;99.90;;;;;;5038914;28;20187;-51
2021/07/04 07:47:03;;;;;;;7.47;6.78;;;22.40;99.90;;;;;;5049495;28;20652;-51
2021/07/04 07:49:29;;;;;;;7.20;6.60;;;22.60;99.90;;;;;;5041549;28;20172;-59
2021/07/04 07:51:54;;;;;;;7.85;7.15;;;22.20;99.90;;;;;;5050470;28;20206;-59
2021/07/04 07:54:21;;;;;;;8.15;7.18;;;23.00;99.90;;;;;;5053349;28;20202;-53
2021/07/04 07:56:47;;;;;;;7.97;7.18;;;22.90;99.90;;;;;;5051886;28;20235;-51
2021/07/04 07:59:13;;;;;;;7.13;6.53;;;23.00;99.90;;;;;;5045882;28;20180;-55
2021/07/04 08:01:39;;;;;;;7.53;6.55;;;22.70;99.90;;;;;;5038354;28;20192;-58
2021/07/04 08:04:05;;;;;;;7.10;6.40;;;22.70;99.90;;;;;;5038092;28;20206;-58
2021/07/04 08:06:30;;;;;;;8.18;7.38;;;23.00;99.90;;;;;;5036977;28;20176;-59
2021/07/04 08:08:56;;;;;;;6.88;6.28;;;23.40;99.90;;;;;;5035489;28;20191;-58
2021/07/04 08:11:21;;;;;;;7.72;6.93;;;23.30;99.90;;;;;;5041263;28;20663;-58
2021/07/04 08:13:47;;;;;;;7.13;6.43;;;23.70;99.90;;;;;;5053240;28;20615;-56
2021/07/04 08:16:16;;;;;;;8.15;7.35;;;23.80;99.90;;;;;;5053560;28;20627;-54
2021/07/04 08:18:41;;;;;;;7.50;6.80;;;23.60;99.90;;;;;;5054397;28;20214;-58
2021/07/04 08:21:07;;;;;;;7.43;6.72;;;24.00;99.90;;;;;;5053956;28;20198;-58
2021/07/04 08:23:32;;;;;;;7.75;6.85;;;24.10;99.90;;;;;;5053210;28;20198;-55
2021/07/04 08:25:58;;;;;;;6.57;5.97;;;24.20;99.90;;;;;;5054217;28;20180;-54
2021/07/04 08:28:23;;;;;;;6.93;6.32;;;24.20;99.90;;;;;;5053140;28;20241;-58
2021/07/04 08:30:49;;;;;;;7.20;6.50;;;24.60;99.90;;;;;;5053665;28;20203;-57
2021/07/04 08:33:15;;;;;;;6.65;6.05;;;24.90;99.90;;;;;;5054189;28;20209;-58
2021/07/04 08:35:41;;;;;;;8.38;6.05;;;25.60;99.90;;;;;;5048947;28;20567;-60
2021/07/04 08:38:07;;;;;;;6.65;6.05;;;25.60;99.90;;;;;;5046335;28;20547;-58
2021/07/04 08:40:33;;;;;;;6.45;5.85;;;25.20;99.90;;;;;;5053336;28;20213;-60
2021/07/04 08:42:59;;;;;;;6.68;6.07;;;25.40;99.90;;;;;;5053508;28;20234;-58
2021/07/04 08:45:24;;;;;;;7.40;6.70;;;25.20;99.90;;;;;;5053750;28;20175;-55
2021/07/04 08:47:51;;;;;;;6.53;5.93;;;25.00;99.90;;;;;;5053935;28;20215;-57
2021/07/04 08:50:17;;;;;;;6.82;6.22;;;25.10;99.90;;;;;;5052498;28;20575;-58
2021/07/04 08:52:43;;;;;;;6.30;5.80;;;25.00;99.90;;;;;;5047008;28;20640;-54
2021/07/04 08:55:10;;;;;;;6.25;5.75;;;24.60;99.90;;;;;;5046184;28;20194;-53
2021/07/04 08:57:36;;;;;;;5.90;5.40;;;24.20;99.90;;;;;;5053689;28;20206;-56
2021/07/04 09:00:04;;;;;;;6.63;5.93;;;24.50;99.90;;;;;;5051602;28;20163;-60
2021/07/04 09:02:32;;;;;;;8.52;5.95;;;24.90;99.90;;;;;;5053202;28;20237;-57
2021/07/04 09:05:09;;;;;;;6.30;5.70;;;24.80;99.90;;;;;;5040723;28;20671;-57
2021/07/04 09:07:36;;;;;;;6.57;5.97;;;25.00;99.90;;;;;;5033527;28;20648;-55
2021/07/04 09:10:07;;;;;;;7.65;6.95;;;25.40;99.90;;;;;;5036477;28;20298;-54
2021/07/04 09:12:43;;;;;;;8.07;7.28;;;24.90;99.90;;;;;;5032836;28;20195;-59
2021/07/04 09:15:11;;;;;;;6.57;5.97;;;24.70;99.90;;;;;;5032945;28;20222;-59
2021/07/04 09:17:38;;;;;;;6.55;5.88;;;25.10;99.90;;;;;;5033426;28;20192;-57
2021/07/04 09:20:11;;;;;;;6.78;6.18;;;25.40;99.90;;;;;;5032995;28;20198;-63
2021/07/04 09:22:39;;;;;;;6.53;5.78;;;25.50;99.90;;;;;;5031980;28;20192;-60
2021/07/04 09:25:15;;;;;;;5.75;5.25;;;25.50;99.90;;;;;;5033377;28;20552;-57
2021/07/04 09:27:59;;;;;;;6.45;5.28;;;26.00;99.90;;;;;;5032866;28;20204;-58
2021/07/04 09:30:33;;;;;;;6.32;5.32;;;26.70;99.90;;;;;;5030384;28;20257;-58
2021/07/04 09:32:59;;;;;;;6.25;5.25;;;;;;;;;;5031467;28;20222;-59
2021/07/04 09:35:24;;;;;;;5.57;4.97;;;27.50;99.90;;;;;;5029036;28;20176;-59
2021/07/04 09:37:51;;;;;;;4.93;4.53;;;27.60;99.90;;;;;;5031467;28;20258;-60
2021/07/04 09:40:23;;;;;;;5.55;4.90;;;27.80;99.90;;;;;;5031961;28;20176;-57
2021/07/04 09:42:59;;;;;;;6.03;5.50;;;27.70;99.90;;;;;;5029860;28;20184;-60
2021/07/04 09:45:27;;;;;;;5.80;5.20;;;27.40;99.90;;;;;;5032824;28;20192;-54
2021/07/04 09:47:54;;;;;;;6.07;4.95;;;28.00;99.90;;;;;;5031558;28;20207;-58
2021/07/04 09:50:20;;;;;;;5.53;4.90;;;27.80;99.90;;;;;;5032920;28;20595;-57
2021/07/04 09:53:01;;;;;;;5.50;5.00;;;27.90;99.90;;;;;;5032461;28;20654;-57
2021/07/04 09:55:27;;;;;;;6.28;5.70;;;28.00;99.90;;;;;;5031200;28;20535;-57
2021/07/04 09:58:01;;;;;;;6.05;5.45;;;27.50;99.90;;;;;;5032930;28;20200;-60
2021/07/04 10:00:29;;;;;;;5.78;5.28;;;27.10;99.90;;;;;;5033300;28;20498;-56
2021/07/04 10:03:19;;;;;;;6.35;5.60;;;26.30;99.90;;;;;;5032151;28;20553;-59
2021/07/04 10:06:00;;;;;;;5.72;5.22;;;26.40;99.90;;;;;;5032610;28;20614;-56
2021/07/04 10:08:34;;;;;;;5.82;5.32;;;26.40;99.90;;;;;;5032974;28;20198;-58
2021/07/04 10:11:04;;;;;;;6.07;4.97;;;26.40;99.90;;;;;;5031838;28;20207;-55
2021/07/04 10:13:31;;;;;;;5.07;4.65;;;26.70;99.90;;;;;;5034546;28;20210;-59
2021/07/04 10:15:58;;;;;;;4.70;4.30;;;26.50;99.90;;;;;;5035311;28;20317;-56
2021/07/04 10:18:24;;;;;;;6.10;5.22;;;26.70;99.90;;;;;;5036705;28;20184;-58
2021/07/04 10:20:51;;;;;;;5.75;4.93;;;26.80;99.90;;;;;;5035616;28;20183;-57
2021/07/04 10:23:20;;;;;;;5.03;4.57;;;26.80;99.90;;;;;;5036260;28;20188;-60
2021/07/04 10:25:47;;;;;;;6.43;5.53;;;27.00;99.90;;;;;;5036309;28;20187;-58
2021/07/04 10:28:16;;;;;;;6.03;5.43;;;26.90;99.90;;;;;;5035509;28;20203;-55
2021/07/04 10:30:42;;;;;;;5.68;4.80;;;26.60;99.90;;;;;;5035821;28;20203;-51
2021/07/04 10:33:22;;;;;;;5.43;4.93;;;26.40;99.90;;;;;;5035611;28;20180;-58
2021/07/04 10:35:50;;;;;;;5.47;4.97;;;25.80;99.90;;;;;;5035478;28;20639;-54
2021/07/04 10:38:16;;;;;;;6.18;4.50;;;25.50;99.90;;;;;;5035422;28;20302;-60
2021/07/04 10:40:42;;;;;;;5.40;4.90;;;25.30;99.90;;;;;;5035846;28;20222;-57
2021/07/04 10:43:08;;;;;;;5.40;4.90;;;25.40;99.90;;;;;;5036094;28;20183;-59
2021/07/04 10:45:40;;;;;;;5.85;4.60;;;25.50;99.90;;;;;;5035636;28;20176;-52
2021/07/04 10:48:27;;;;;;;5.45;4.95;;;25.60;99.90;;;;;;5036278;28;20687;-59
2021/07/04 10:51:13;;;;;;;4.88;4.40;;;25.40;99.90;;;;;;5034717;28;20254;-57
2021/07/04 10:53:51;;;;;;;4.82;4.22;;;25.30;99.90;;;;;;5036315;28;20210;-60
2021/07/04 10:56:34;;;;;;;5.85;4.85;;;25.30;99.90;;;;;;5036478;28;20167;-58
2021/07/04 10:59:05;;;;;;;4.68;4.28;;;25.50;99.90;;;;;;5035542;28;20647;-60
2021/07/04 11:02:06;;;;;;;4.63;4.22;;;25.90;99.90;;;;;;5035709;28;20214;-55
2021/07/04 11:04:31;;;;;;;4.32;3.90;;;26.50;99.90;;;;;;5013463;28;20188;-59
2021/07/04 11:07:03;;;;;;;4.65;4.15;;;26.50;99.90;;;;;;5011994;28;20307;-57
2021/07/04 11:09:51;;;;;;;4.15;3.85;;;26.60;99.90;;;;;;5013505;28;20283;-59
2021/07/04 11:12:31;;;;;;;4.82;3.78;;;26.90;99.90;;;;;;5013653;28;20249;-59
2021/07/04 11:15:12;;;;;;;3.88;3.58;;;26.90;99.90;;;;;;5013168;28;20263;-59
2021/07/04 11:17:55;;;;;;;3.90;3.60;;;27.20;99.90;;;;;;5013847;28;20357;-60
2021/07/04 11:20:22;;;;;;;4.13;3.72;;;27.70;99.90;;;;;;5013231;28;20181;-61
2021/07/04 11:22:58;;;;;;;3.97;3.67;;;28.10;99.90;;;;;;5012981;28;20176;-60
2021/07/04 11:25:25;;;;;;;4.30;4.00;;;28.40;99.90;;;;;;5011176;28;20200;-61
2021/07/04 11:28:15;;;;;;;4.57;4.22;;;28.10;99.90;;;;;;5013100;28;20196;-53
2021/07/04 11:30:41;;;;;;;4.10;3.80;;;27.80;99.90;;;;;;5011784;28;20260;-58
2021/07/04 11:33:28;;;;;;;4.78;4.25;;;28.00;99.90;;;;;;5012845;28;20180;-60
2021/07/04 11:36:03;;;;;;;4.18;3.88;;;28.10;99.90;;;;;;5013172;28;20533;-53
2021/07/04 11:38:34;;;;;;;4.05;3.75;;;28.20;99.90;;;;;;5023669;28;20211;-54
2021/07/04 11:41:00;;;;;;;4.43;4.03;;;28.30;99.90;;;;;;5035154;28;20172;-60
2021/07/04 11:43:27;;;;;;;3.72;3.45;;;28.30;98.70;;;;;;5034037;28;20211;-59
2021/07/04 11:45:57;;;;;;;4.00;3.70;;;28.40;99.90;;;;;;5034838;28;20175;-53
2021/07/04 11:48:44;;;;;;;3.80;3.47;;;28.80;98.50;;;;;;5034651;28;20196;-60
2021/07/04 11:51:10;;;;;;;3.97;3.67;;;29.00;99.90;;;;;;5033241;28;20212;-59
2021/07/04 11:53:50;;;;;;;4.30;3.88;;;28.80;98.90;;;;;;5035612;28;20172;-57
2021/07/04 11:56:17;;;;;;;4.28;3.97;;;28.70;98.90;;;;;;5036183;28;20567;-58
2021/07/04 11:58:43;;;;;;;4.15;3.75;;;28.20;99.20;;;;;;5034788;28;20906;-59
2021/07/04 12:01:26;;;;;;;3.83;3.53;;;27.60;99.90;;;;;;5033548;28;20200;-52
2021/07/04 12:03:55;;;;;;;3.80;3.50;;;27.50;99.90;;;;;;5034548;28;20195;-58
2021/07/04 12:06:22;;;;;;;3.80;3.50;;;27.50;99.70;;;;;;5033941;28;20175;-58
2021/07/04 12:08:52;;;;;;;3.92;3.63;;;27.30;99.40;;;;;;5035339;28;20218;-54
2021/07/04 12:11:17;;;;;;;4.07;3.78;;;27.30;99.60;;;;;;5034897;28;20203;-53
2021/07/04 12:13:45;;;;;;;3.75;3.45;;;27.10;99.20;;;;;;5034477;28;20172;-53
2021/07/04 12:16:12;;;;;;;4.30;3.90;;;26.80;99.90;;;;;;5034202;28;20179;-60
2021/07/04 12:18:38;;;;;;;4.32;3.92;;;26.90;99.90;;;;;;5033069;28;20772;-61
2021/07/04 12:21:05;;;;;;;3.90;3.60;;;27.10;99.90;;;;;;5033006;28;20200;-59
2021/07/04 12:23:31;;;;;;;3.42;3.13;;;27.20;99.90;;;;;;5032940;28;20203;-58
2021/07/04 12:26:08;;;;;;;4.20;3.70;;;27.30;99.90;;;;;;5033977;28;20188;-56
2021/07/04 12:28:33;;;;;;;4.43;3.40;;;27.60;99.80;;;;;;5037246;28;20192;-60
2021/07/04 12:30:59;;;;;;;4.07;3.67;;;27.50;99.80;;;;;;5033415;28;20322;-57
2021/07/04 12:33:27;;;;;;;3.50;3.30;;;27.60;99.00;;;;;;5033155;28;20180;-57
2021/07/04 12:35:59;;;;;;;4.07;3.70;;;27.70;99.40;;;;;;5032867;28;20187;-61
2021/07/04 12:38:34;;;;;;;3.80;3.50;;;27.70;98.20;;;;;;5034358;28;20202;-57
2021/07/04 12:41:09;;;;;;;4.20;3.90;;;27.60;99.50;;;;;;5033437;28;20160;-60
2021/07/04 12:43:41;;;;;;;4.30;3.95;;;27.50;99.70;;;;;;5034578;28;20243;-53
2021/07/04 12:46:16;;;;;;;4.25;3.85;;;27.30;99.80;;;;;;5036217;28;20194;-58
2021/07/04 12:48:44;;;;;;;3.88;3.58;;;27.50;99.90;;;;;;5034704;28;20199;-56